Sandy Plains, Georgia
Current Conditions -  °F | °C
As of 11:58 PM on Thursday 27 Nov 2014 (Local Time) from KMGE Reporting Station
Clear Clear  
Wind Chill: 26°   Ceiling: Unl
Heat Index: 33°   Visibility: 10mi
Dew Point: 23°   Wind: 9mph
Humidity: 67%   Direction: 330°NNW
Pressure: 30.38"   Gusts: NA
Location:  34.0525°N, 84.3874°W
Report Text: KMGE 280458Z AUTO 33008KT 10SM CLR 01/M05 A3038 RMK AO2 SLP297 T00071048 400840007 $
Loading
Personal Weather Stations






























Interactive Weather Map New forecast layout! Learn more

10-Day Weather Forecast

Advertisements
Track Severe Weather on mobile